sensor_id;sensor_type;location;lat;lon;timestamp;P1;durP1;ratioP1;P2;durP2;ratioP2
25581;SDS011;13462;50.764;4.332;2022-12-07T00:10:23;45.80;;;26.70;;
25581;SDS011;13462;50.764;4.332;2022-12-07T00:12:51;46.60;;;26.00;;
25581;SDS011;13462;50.764;4.332;2022-12-07T00:15:30;45.13;;;25.00;;
25581;SDS011;13462;50.764;4.332;2022-12-07T00:23:33;42.88;;;25.60;;
25581;SDS011;13462;50.764;4.332;2022-12-07T00:26:21;44.97;;;25.38;;
25581;SDS011;13462;50.764;4.332;2022-12-07T00:28:54;46.88;;;25.88;;
25581;SDS011;13462;50.764;4.332;2022-12-07T00:31:25;48.25;;;27.17;;
25581;SDS011;13462;50.764;4.332;2022-12-07T00:33:53;44.90;;;26.45;;
25581;SDS011;13462;50.764;4.332;2022-12-07T00:36:21;45.70;;;24.73;;
25581;SDS011;13462;50.764;4.332;2022-12-07T00:38:51;46.70;;;25.67;;
25581;SDS011;13462;50.764;4.332;2022-12-07T00:44:52;40.95;;;24.13;;
25581;SDS011;13462;50.764;4.332;2022-12-07T00:47:38;43.63;;;23.90;;
25581;SDS011;13462;50.764;4.332;2022-12-07T00:50:04;44.17;;;24.65;;
25581;SDS011;13462;50.764;4.332;2022-12-07T00:52:31;41.55;;;23.65;;
25581;SDS011;13462;50.764;4.332;2022-12-07T00:55:12;42.95;;;22.83;;
25581;SDS011;13462;50.764;4.332;2022-12-07T00:57:37;39.92;;;22.90;;
25581;SDS011;13462;50.764;4.332;2022-12-07T01:00:09;39.70;;;22.98;;
25581;SDS011;13462;50.764;4.332;2022-12-07T01:09:37;43.55;;;23.10;;
25581;SDS011;13462;50.764;4.332;2022-12-07T01:26:28;47.20;;;24.00;;
25581;SDS011;13462;50.764;4.332;2022-12-07T01:29:15;41.17;;;24.35;;
25581;SDS011;13462;50.764;4.332;2022-12-07T01:32:14;43.40;;;24.60;;
25581;SDS011;13462;50.764;4.332;2022-12-07T01:34:47;42.38;;;23.65;;
25581;SDS011;13462;50.764;4.332;2022-12-07T01:37:13;44.72;;;25.02;;
25581;SDS011;13462;50.764;4.332;2022-12-07T01:39:39;44.92;;;24.02;;
25581;SDS011;13462;50.764;4.332;2022-12-07T01:42:09;41.97;;;23.52;;
25581;SDS011;13462;50.764;4.332;2022-12-07T01:48:02;43.63;;;24.60;;
25581;SDS011;13462;50.764;4.332;2022-12-07T02:07:31;37.33;;;22.05;;
25581;SDS011;13462;50.764;4.332;2022-12-07T02:10:16;38.42;;;21.08;;
25581;SDS011;13462;50.764;4.332;2022-12-07T02:13:10;34.72;;;22.25;;
25581;SDS011;13462;50.764;4.332;2022-12-07T02:48:20;37.30;;;22.75;;
25581;SDS011;13462;50.764;4.332;2022-12-07T02:50:52;47.33;;;25.45;;
25581;SDS011;13462;50.764;4.332;2022-12-07T02:53:55;41.33;;;25.42;;
25581;SDS011;13462;50.764;4.332;2022-12-07T02:56:31;41.72;;;23.73;;
25581;SDS011;13462;50.764;4.332;2022-12-07T03:10:48;40.20;;;23.80;;
25581;SDS011;13462;50.764;4.332;2022-12-07T03:13:37;40.15;;;24.48;;
25581;SDS011;13462;50.764;4.332;2022-12-07T03:16:25;38.67;;;23.58;;
25581;SDS011;13462;50.764;4.332;2022-12-07T03:18:59;40.72;;;25.10;;
25581;SDS011;13462;50.764;4.332;2022-12-07T03:21:33;40.97;;;24.17;;
25581;SDS011;13462;50.764;4.332;2022-12-07T03:24:09;41.88;;;25.85;;
25581;SDS011;13462;50.764;4.332;2022-12-07T03:26:44;47.75;;;24.25;;
25581;SDS011;13462;50.764;4.332;2022-12-07T03:29:17;40.70;;;22.92;;
25581;SDS011;13462;50.764;4.332;2022-12-07T03:32:04;35.85;;;22.35;;
25581;SDS011;13462;50.764;4.332;2022-12-07T03:34:40;39.45;;;21.25;;
25581;SDS011;13462;50.764;4.332;2022-12-07T03:37:09;36.40;;;20.58;;
25581;SDS011;13462;50.764;4.332;2022-12-07T03:42:25;35.55;;;19.98;;
25581;SDS011;13462;50.764;4.332;2022-12-07T03:44:51;30.00;;;19.38;;
25581;SDS011;13462;50.764;4.332;2022-12-07T03:47:21;35.92;;;21.73;;
25581;SDS011;13462;50.764;4.332;2022-12-07T03:53:04;29.73;;;17.95;;
25581;SDS011;13462;50.764;4.332;2022-12-07T03:55:37;33.10;;;19.60;;
25581;SDS011;13462;50.764;4.332;2022-12-07T03:58:08;30.88;;;19.55;;
25581;SDS011;13462;50.764;4.332;2022-12-07T04:00:36;40.58;;;21.45;;
25581;SDS011;13462;50.764;4.332;2022-12-07T04:03:03;34.47;;;22.42;;
25581;SDS011;13462;50.764;4.332;2022-12-07T04:05:28;35.65;;;21.98;;
25581;SDS011;13462;50.764;4.332;2022-12-07T04:07:55;35.20;;;21.10;;
25581;SDS011;13462;50.764;4.332;2022-12-07T04:10:20;36.70;;;22.70;;
25581;SDS011;13462;50.764;4.332;2022-12-07T04:12:46;38.55;;;23.25;;
25581;SDS011;13462;50.764;4.332;2022-12-07T04:15:12;38.72;;;23.63;;
25581;SDS011;13462;50.764;4.332;2022-12-07T04:17:44;38.00;;;21.77;;
25581;SDS011;13462;50.764;4.332;2022-12-07T04:20:10;34.22;;;22.80;;
25581;SDS011;13462;50.764;4.332;2022-12-07T04:22:43;34.10;;;21.67;;
25581;SDS011;13462;50.764;4.332;2022-12-07T04:25:08;36.55;;;20.70;;
25581;SDS011;13462;50.764;4.332;2022-12-07T04:27:37;33.53;;;21.38;;
25581;SDS011;13462;50.764;4.332;2022-12-07T04:30:03;40.25;;;23.23;;
25581;SDS011;13462;50.764;4.332;2022-12-07T04:32:29;38.17;;;22.65;;
25581;SDS011;13462;50.764;4.332;2022-12-07T04:34:55;39.40;;;22.30;;
25581;SDS011;13462;50.764;4.332;2022-12-07T04:37:21;38.65;;;20.90;;
25581;SDS011;13462;50.764;4.332;2022-12-07T04:39:50;40.17;;;21.67;;
25581;SDS011;13462;50.764;4.332;2022-12-07T04:42:15;46.03;;;23.17;;
25581;SDS011;13462;50.764;4.332;2022-12-07T04:44:41;41.55;;;22.38;;
25581;SDS011;13462;50.764;4.332;2022-12-07T04:47:07;41.08;;;21.55;;
25581;SDS011;13462;50.764;4.332;2022-12-07T04:49:33;36.95;;;22.77;;
25581;SDS011;13462;50.764;4.332;2022-12-07T04:51:59;43.10;;;24.55;;
25581;SDS011;13462;50.764;4.332;2022-12-07T04:54:27;39.22;;;23.00;;
25581;SDS011;13462;50.764;4.332;2022-12-07T04:56:53;39.38;;;23.42;;
25581;SDS011;13462;50.764;4.332;2022-12-07T04:59:18;45.80;;;25.13;;
25581;SDS011;13462;50.764;4.332;2022-12-07T05:01:44;39.08;;;25.65;;
25581;SDS011;13462;50.764;4.332;2022-12-07T05:04:10;45.83;;;24.27;;
25581;SDS011;13462;50.764;4.332;2022-12-07T05:06:38;44.90;;;24.70;;
25581;SDS011;13462;50.764;4.332;2022-12-07T05:09:04;40.58;;;24.58;;
25581;SDS011;13462;50.764;4.332;2022-12-07T05:11:30;45.15;;;25.05;;
25581;SDS011;13462;50.764;4.332;2022-12-07T05:14:11;44.03;;;25.05;;
25581;SDS011;13462;50.764;4.332;2022-12-07T05:16:40;44.65;;;26.17;;
25581;SDS011;13462;50.764;4.332;2022-12-07T05:19:07;40.08;;;24.13;;
25581;SDS011;13462;50.764;4.332;2022-12-07T05:21:33;42.92;;;24.88;;
25581;SDS011;13462;50.764;4.332;2022-12-07T05:23:59;46.03;;;25.13;;
25581;SDS011;13462;50.764;4.332;2022-12-07T05:26:28;43.33;;;24.40;;
25581;SDS011;13462;50.764;4.332;2022-12-07T05:28:59;47.20;;;24.75;;
25581;SDS011;13462;50.764;4.332;2022-12-07T05:31:25;39.17;;;25.20;;
25581;SDS011;13462;50.764;4.332;2022-12-07T05:45:13;37.67;;;22.90;;
25581;SDS011;13462;50.764;4.332;2022-12-07T05:47:39;40.03;;;23.77;;
25581;SDS011;13462;50.764;4.332;2022-12-07T05:50:07;40.38;;;23.77;;
25581;SDS011;13462;50.764;4.332;2022-12-07T05:52:33;44.65;;;25.77;;
25581;SDS011;13462;50.764;4.332;2022-12-07T05:54:59;36.42;;;23.17;;
25581;SDS011;13462;50.764;4.332;2022-12-07T05:57:25;35.13;;;22.80;;
25581;SDS011;13462;50.764;4.332;2022-12-07T05:59:50;44.40;;;25.05;;
25581;SDS011;13462;50.764;4.332;2022-12-07T06:02:16;44.33;;;24.27;;
25581;SDS011;13462;50.764;4.332;2022-12-07T06:04:43;35.88;;;22.42;;
25581;SDS011;13462;50.764;4.332;2022-12-07T06:07:11;43.40;;;24.20;;
25581;SDS011;13462;50.764;4.332;2022-12-07T06:09:38;38.03;;;21.00;;
25581;SDS011;13462;50.764;4.332;2022-12-07T06:12:04;41.63;;;21.88;;
25581;SDS011;13462;50.764;4.332;2022-12-07T06:14:49;36.70;;;22.73;;
25581;SDS011;13462;50.764;4.332;2022-12-07T06:17:15;39.08;;;22.27;;
25581;SDS011;13462;50.764;4.332;2022-12-07T06:19:41;35.97;;;21.92;;
25581;SDS011;13462;50.764;4.332;2022-12-07T06:22:07;35.22;;;21.85;;
25581;SDS011;13462;50.764;4.332;2022-12-07T06:24:34;37.30;;;22.75;;
25581;SDS011;13462;50.764;4.332;2022-12-07T06:26:59;37.03;;;22.05;;
25581;SDS011;13462;50.764;4.332;2022-12-07T06:29:25;34.47;;;20.73;;
25581;SDS011;13462;50.764;4.332;2022-12-07T06:31:51;36.22;;;21.98;;
25581;SDS011;13462;50.764;4.332;2022-12-07T06:34:18;32.17;;;20.02;;
25581;SDS011;13462;50.764;4.332;2022-12-07T06:36:45;40.90;;;22.77;;
25581;SDS011;13462;50.764;4.332;2022-12-07T06:39:15;39.33;;;22.85;;
25581;SDS011;13462;50.764;4.332;2022-12-07T06:41:41;40.28;;;25.38;;
25581;SDS011;13462;50.764;4.332;2022-12-07T06:44:07;36.60;;;23.38;;
25581;SDS011;13462;50.764;4.332;2022-12-07T06:46:33;40.20;;;24.88;;
25581;SDS011;13462;50.764;4.332;2022-12-07T06:49:00;42.78;;;23.92;;
25581;SDS011;13462;50.764;4.332;2022-12-07T06:51:26;36.88;;;23.05;;
25581;SDS011;13462;50.764;4.332;2022-12-07T06:53:52;39.38;;;23.85;;
25581;SDS011;13462;50.764;4.332;2022-12-07T06:56:17;40.80;;;22.65;;
25581;SDS011;13462;50.764;4.332;2022-12-07T06:58:43;45.58;;;23.35;;
25581;SDS011;13462;50.764;4.332;2022-12-07T07:01:13;35.25;;;21.95;;
25581;SDS011;13462;50.764;4.332;2022-12-07T07:03:40;36.55;;;21.10;;
25581;SDS011;13462;50.764;4.332;2022-12-07T07:06:06;36.15;;;22.58;;
25581;SDS011;13462;50.764;4.332;2022-12-07T07:08:33;33.28;;;21.98;;
25581;SDS011;13462;50.764;4.332;2022-12-07T07:10:59;37.63;;;21.10;;
25581;SDS011;13462;50.764;4.332;2022-12-07T07:13:26;35.60;;;20.55;;
25581;SDS011;13462;50.764;4.332;2022-12-07T07:15:52;36.13;;;20.00;;
25581;SDS011;13462;50.764;4.332;2022-12-07T07:18:18;32.75;;;19.98;;
25581;SDS011;13462;50.764;4.332;2022-12-07T07:20:43;33.22;;;20.73;;
25581;SDS011;13462;50.764;4.332;2022-12-07T07:23:09;30.80;;;19.35;;
25581;SDS011;13462;50.764;4.332;2022-12-07T07:25:35;30.80;;;18.20;;
25581;SDS011;13462;50.764;4.332;2022-12-07T07:28:00;38.15;;;22.92;;
25581;SDS011;13462;50.764;4.332;2022-12-07T07:30:26;34.38;;;20.67;;
25581;SDS011;13462;50.764;4.332;2022-12-07T07:32:56;27.30;;;19.67;;
25581;SDS011;13462;50.764;4.332;2022-12-07T07:35:26;56.40;;;35.83;;
25581;SDS011;13462;50.764;4.332;2022-12-07T07:37:53;78.65;;;44.55;;
25581;SDS011;13462;50.764;4.332;2022-12-07T07:40:19;49.65;;;31.65;;
25581;SDS011;13462;50.764;4.332;2022-12-07T07:42:49;43.90;;;24.55;;
25581;SDS011;13462;50.764;4.332;2022-12-07T07:45:15;35.33;;;21.80;;
25581;SDS011;13462;50.764;4.332;2022-12-07T07:47:42;39.33;;;20.85;;
25581;SDS011;13462;50.764;4.332;2022-12-07T07:50:18;38.20;;;21.10;;
25581;SDS011;13462;50.764;4.332;2022-12-07T07:52:44;36.63;;;22.25;;
25581;SDS011;13462;50.764;4.332;2022-12-07T07:55:10;36.08;;;23.38;;
25581;SDS011;13462;50.764;4.332;2022-12-07T07:57:37;39.97;;;22.42;;
25581;SDS011;13462;50.764;4.332;2022-12-07T08:00:07;40.65;;;23.05;;
25581;SDS011;13462;50.764;4.332;2022-12-07T08:02:35;44.80;;;24.48;;
25581;SDS011;13462;50.764;4.332;2022-12-07T08:05:01;42.70;;;22.98;;
25581;SDS011;13462;50.764;4.332;2022-12-07T08:07:30;38.47;;;22.27;;
25581;SDS011;13462;50.764;4.332;2022-12-07T08:09:56;44.78;;;22.83;;
25581;SDS011;13462;50.764;4.332;2022-12-07T08:12:22;42.70;;;22.10;;
25581;SDS011;13462;50.764;4.332;2022-12-07T08:14:50;39.33;;;22.35;;
25581;SDS011;13462;50.764;4.332;2022-12-07T08:17:16;46.42;;;24.45;;
25581;SDS011;13462;50.764;4.332;2022-12-07T08:19:42;40.60;;;22.63;;
25581;SDS011;13462;50.764;4.332;2022-12-07T08:22:13;36.53;;;21.00;;
25581;SDS011;13462;50.764;4.332;2022-12-07T08:24:39;40.65;;;22.20;;
25581;SDS011;13462;50.764;4.332;2022-12-07T08:27:05;36.72;;;19.65;;
25581;SDS011;13462;50.764;4.332;2022-12-07T08:29:30;42.30;;;21.77;;
25581;SDS011;13462;50.764;4.332;2022-12-07T08:31:56;36.42;;;19.73;;
25581;SDS011;13462;50.764;4.332;2022-12-07T08:34:25;34.50;;;21.25;;
25581;SDS011;13462;50.764;4.332;2022-12-07T08:36:54;43.22;;;21.60;;
25581;SDS011;13462;50.764;4.332;2022-12-07T08:39:20;36.90;;;21.25;;
25581;SDS011;13462;50.764;4.332;2022-12-07T08:41:46;37.00;;;21.35;;
25581;SDS011;13462;50.764;4.332;2022-12-07T08:44:11;41.78;;;20.67;;
25581;SDS011;13462;50.764;4.332;2022-12-07T08:46:42;35.33;;;19.33;;
25581;SDS011;13462;50.764;4.332;2022-12-07T08:49:15;34.20;;;17.40;;
25581;SDS011;13462;50.764;4.332;2022-12-07T08:51:44;32.70;;;18.52;;
25581;SDS011;13462;50.764;4.332;2022-12-07T08:54:11;29.02;;;16.80;;
25581;SDS011;13462;50.764;4.332;2022-12-07T08:56:39;28.70;;;15.90;;
25581;SDS011;13462;50.764;4.332;2022-12-07T08:59:06;27.90;;;16.15;;
25581;SDS011;13462;50.764;4.332;2022-12-07T09:01:32;24.83;;;14.07;;
25581;SDS011;13462;50.764;4.332;2022-12-07T09:03:58;26.25;;;15.50;;
25581;SDS011;13462;50.764;4.332;2022-12-07T09:06:24;24.38;;;12.30;;
25581;SDS011;13462;50.764;4.332;2022-12-07T09:08:51;22.27;;;12.90;;
25581;SDS011;13462;50.764;4.332;2022-12-07T09:11:20;24.75;;;11.80;;
25581;SDS011;13462;50.764;4.332;2022-12-07T09:13:46;22.25;;;13.35;;
25581;SDS011;13462;50.764;4.332;2022-12-07T09:16:14;23.40;;;14.10;;
25581;SDS011;13462;50.764;4.332;2022-12-07T09:18:40;21.55;;;12.13;;
25581;SDS011;13462;50.764;4.332;2022-12-07T09:21:06;21.85;;;11.77;;
25581;SDS011;13462;50.764;4.332;2022-12-07T09:23:32;18.38;;;11.38;;
25581;SDS011;13462;50.764;4.332;2022-12-07T09:25:59;22.48;;;11.70;;
25581;SDS011;13462;50.764;4.332;2022-12-07T09:28:31;17.63;;;12.30;;
25581;SDS011;13462;50.764;4.332;2022-12-07T09:30:56;17.42;;;11.50;;
25581;SDS011;13462;50.764;4.332;2022-12-07T09:33:22;17.00;;;11.35;;
25581;SDS011;13462;50.764;4.332;2022-12-07T09:35:49;19.20;;;11.43;;
25581;SDS011;13462;50.764;4.332;2022-12-07T09:38:16;15.82;;;10.48;;
25581;SDS011;13462;50.764;4.332;2022-12-07T09:40:43;13.85;;;8.27;;
25581;SDS011;13462;50.764;4.332;2022-12-07T09:43:19;14.75;;;9.48;;
25581;SDS011;13462;50.764;4.332;2022-12-07T09:45:48;14.43;;;8.35;;
25581;SDS011;13462;50.764;4.332;2022-12-07T09:48:26;16.27;;;7.97;;
25581;SDS011;13462;50.764;4.332;2022-12-07T09:50:57;11.27;;;7.10;;
25581;SDS011;13462;50.764;4.332;2022-12-07T09:53:29;12.50;;;6.72;;
25581;SDS011;13462;50.764;4.332;2022-12-07T09:55:58;9.68;;;7.35;;
25581;SDS011;13462;50.764;4.332;2022-12-07T09:58:25;11.88;;;7.22;;
25581;SDS011;13462;50.764;4.332;2022-12-07T10:00:55;11.35;;;6.85;;
25581;SDS011;13462;50.764;4.332;2022-12-07T10:03:38;10.27;;;6.95;;
25581;SDS011;13462;50.764;4.332;2022-12-07T10:06:05;13.15;;;6.57;;
25581;SDS011;13462;50.764;4.332;2022-12-07T10:08:32;8.55;;;6.22;;
25581;SDS011;13462;50.764;4.332;2022-12-07T10:10:59;10.25;;;6.75;;
25581;SDS011;13462;50.764;4.332;2022-12-07T10:13:37;13.43;;;7.18;;
25581;SDS011;13462;50.764;4.332;2022-12-07T10:16:06;12.90;;;7.40;;
25581;SDS011;13462;50.764;4.332;2022-12-07T10:18:52;12.32;;;7.47;;
25581;SDS011;13462;50.764;4.332;2022-12-07T10:21:25;13.43;;;7.53;;
25581;SDS011;13462;50.764;4.332;2022-12-07T10:29:36;18.27;;;9.93;;
25581;SDS011;13462;50.764;4.332;2022-12-07T10:34:35;17.23;;;10.25;;
25581;SDS011;13462;50.764;4.332;2022-12-07T10:39:44;17.08;;;11.05;;
25581;SDS011;13462;50.764;4.332;2022-12-07T10:42:19;21.80;;;9.82;;
25581;SDS011;13462;50.764;4.332;2022-12-07T10:44:49;20.25;;;9.38;;
25581;SDS011;13462;50.764;4.332;2022-12-07T10:47:39;20.38;;;9.55;;
25581;SDS011;13462;50.764;4.332;2022-12-07T10:53:17;19.95;;;9.55;;
25581;SDS011;13462;50.764;4.332;2022-12-07T10:56:07;14.20;;;9.82;;
25581;SDS011;13462;50.764;4.332;2022-12-07T11:01:52;15.13;;;8.60;;
25581;SDS011;13462;50.764;4.332;2022-12-07T11:11:04;18.40;;;7.95;;
25581;SDS011;13462;50.764;4.332;2022-12-07T11:16:51;11.30;;;8.07;;
25581;SDS011;13462;50.764;4.332;2022-12-07T11:30:34;18.23;;;7.90;;
25581;SDS011;13462;50.764;4.332;2022-12-07T11:33:20;14.23;;;8.38;;
25581;SDS011;13462;50.764;4.332;2022-12-07T11:38:37;14.75;;;8.90;;
25581;SDS011;13462;50.764;4.332;2022-12-07T11:41:09;21.95;;;9.00;;
25581;SDS011;13462;50.764;4.332;2022-12-07T11:46:18;16.92;;;8.68;;
25581;SDS011;13462;50.764;4.332;2022-12-07T11:48:58;12.68;;;7.40;;
25581;SDS011;13462;50.764;4.332;2022-12-07T11:51:33;14.93;;;8.73;;
25581;SDS011;13462;50.764;4.332;2022-12-07T11:54:03;17.30;;;8.50;;
25581;SDS011;13462;50.764;4.332;2022-12-07T11:56:37;13.40;;;8.45;;
25581;SDS011;13462;50.764;4.332;2022-12-07T11:59:11;17.08;;;9.10;;
25581;SDS011;13462;50.764;4.332;2022-12-07T12:01:47;17.33;;;9.23;;
25581;SDS011;13462;50.764;4.332;2022-12-07T12:06:52;17.15;;;10.02;;
25581;SDS011;13462;50.764;4.332;2022-12-07T12:09:23;14.38;;;8.25;;
25581;SDS011;13462;50.764;4.332;2022-12-07T12:17:20;21.35;;;8.20;;
25581;SDS011;13462;50.764;4.332;2022-12-07T12:20:29;13.50;;;6.65;;
25581;SDS011;13462;50.764;4.332;2022-12-07T12:23:21;7.32;;;4.43;;
25581;SDS011;13462;50.764;4.332;2022-12-07T12:26:19;7.55;;;4.43;;
25581;SDS011;13462;50.764;4.332;2022-12-07T12:33:55;7.63;;;3.10;;
25581;SDS011;13462;50.764;4.332;2022-12-07T12:51:51;13.50;;;3.50;;
25581;SDS011;13462;50.764;4.332;2022-12-07T12:59:26;8.68;;;4.35;;
25581;SDS011;13462;50.764;4.332;2022-12-07T13:02:08;7.25;;;3.45;;
25581;SDS011;13462;50.764;4.332;2022-12-07T13:04:51;11.90;;;4.53;;
25581;SDS011;13462;50.764;4.332;2022-12-07T13:15:42;10.77;;;4.03;;
25581;SDS011;13462;50.764;4.332;2022-12-07T13:20:50;12.95;;;5.30;;
25581;SDS011;13462;50.764;4.332;2022-12-07T13:23:36;11.20;;;4.28;;
25581;SDS011;13462;50.764;4.332;2022-12-07T13:28:40;6.30;;;3.88;;
25581;SDS011;13462;50.764;4.332;2022-12-07T13:33:56;9.70;;;4.05;;
25581;SDS011;13462;50.764;4.332;2022-12-07T13:36:23;8.80;;;4.55;;
25581;SDS011;13462;50.764;4.332;2022-12-07T13:38:52;10.73;;;7.82;;
25581;SDS011;13462;50.764;4.332;2022-12-07T13:41:20;12.00;;;5.32;;
25581;SDS011;13462;50.764;4.332;2022-12-07T13:43:51;8.00;;;5.03;;
25581;SDS011;13462;50.764;4.332;2022-12-07T13:46:33;12.95;;;5.97;;
25581;SDS011;13462;50.764;4.332;2022-12-07T13:49:23;9.50;;;4.80;;
25581;SDS011;13462;50.764;4.332;2022-12-07T13:51:51;10.32;;;5.15;;
25581;SDS011;13462;50.764;4.332;2022-12-07T13:54:17;7.68;;;4.35;;
25581;SDS011;13462;50.764;4.332;2022-12-07T13:56:47;5.25;;;4.50;;
25581;SDS011;13462;50.764;4.332;2022-12-07T13:59:19;11.80;;;5.18;;
25581;SDS011;13462;50.764;4.332;2022-12-07T14:01:48;9.73;;;5.10;;
25581;SDS011;13462;50.764;4.332;2022-12-07T14:04:32;8.85;;;4.32;;
25581;SDS011;13462;50.764;4.332;2022-12-07T14:06:59;6.50;;;4.45;;
25581;SDS011;13462;50.764;4.332;2022-12-07T14:09:27;10.15;;;4.20;;
25581;SDS011;13462;50.764;4.332;2022-12-07T14:11:56;10.85;;;4.63;;
25581;SDS011;13462;50.764;4.332;2022-12-07T14:14:29;8.93;;;4.45;;
25581;SDS011;13462;50.764;4.332;2022-12-07T14:16:56;11.43;;;4.82;;
25581;SDS011;13462;50.764;4.332;2022-12-07T14:24:59;10.55;;;5.50;;
25581;SDS011;13462;50.764;4.332;2022-12-07T14:28:24;7.53;;;5.03;;
25581;SDS011;13462;50.764;4.332;2022-12-07T14:45:15;8.75;;;4.93;;
25581;SDS011;13462;50.764;4.332;2022-12-07T14:48:38;10.07;;;6.65;;
25581;SDS011;13462;50.764;4.332;2022-12-07T14:59:02;9.13;;;4.95;;
25581;SDS011;13462;50.764;4.332;2022-12-07T15:01:23;10.60;;;5.97;;
25581;SDS011;13462;50.764;4.332;2022-12-07T15:03:59;6.03;;;3.70;;
25581;SDS011;13462;50.764;4.332;2022-12-07T15:06:28;7.47;;;4.30;;
25581;SDS011;13462;50.764;4.332;2022-12-07T15:08:59;10.70;;;8.55;;
25581;SDS011;13462;50.764;4.332;2022-12-07T15:11:26;6.35;;;4.53;;
25581;SDS011;13462;50.764;4.332;2022-12-07T15:13:52;6.50;;;5.53;;
25581;SDS011;13462;50.764;4.332;2022-12-07T15:22:47;8.55;;;4.47;;
25581;SDS011;13462;50.764;4.332;2022-12-07T15:25:13;7.25;;;3.78;;
25581;SDS011;13462;50.764;4.332;2022-12-07T15:27:42;8.23;;;4.45;;
25581;SDS011;13462;50.764;4.332;2022-12-07T15:30:07;8.27;;;4.97;;
25581;SDS011;13462;50.764;4.332;2022-12-07T15:32:33;10.30;;;5.63;;
25581;SDS011;13462;50.764;4.332;2022-12-07T15:34:59;11.52;;;4.63;;
25581;SDS011;13462;50.764;4.332;2022-12-07T15:37:25;9.82;;;5.13;;
25581;SDS011;13462;50.764;4.332;2022-12-07T15:39:51;7.60;;;4.75;;
25581;SDS011;13462;50.764;4.332;2022-12-07T15:42:16;9.27;;;3.90;;
25581;SDS011;13462;50.764;4.332;2022-12-07T15:44:42;7.60;;;4.78;;
25581;SDS011;13462;50.764;4.332;2022-12-07T15:47:26;7.88;;;4.50;;
25581;SDS011;13462;50.764;4.332;2022-12-07T15:49:52;13.90;;;7.75;;
25581;SDS011;13462;50.764;4.332;2022-12-07T15:52:20;10.52;;;8.23;;
25581;SDS011;13462;50.764;4.332;2022-12-07T15:54:46;9.25;;;6.28;;
25581;SDS011;13462;50.764;4.332;2022-12-07T15:57:12;11.30;;;5.63;;
25581;SDS011;13462;50.764;4.332;2022-12-07T15:59:44;7.38;;;5.40;;
25581;SDS011;13462;50.764;4.332;2022-12-07T16:02:09;7.45;;;4.20;;
25581;SDS011;13462;50.764;4.332;2022-12-07T16:04:35;5.88;;;4.30;;
25581;SDS011;13462;50.764;4.332;2022-12-07T16:07:01;7.18;;;4.10;;
25581;SDS011;13462;50.764;4.332;2022-12-07T16:09:29;10.00;;;4.50;;
25581;SDS011;13462;50.764;4.332;2022-12-07T16:11:54;11.75;;;5.00;;
25581;SDS011;13462;50.764;4.332;2022-12-07T16:14:20;7.65;;;5.93;;
25581;SDS011;13462;50.764;4.332;2022-12-07T16:16:47;13.70;;;10.25;;
25581;SDS011;13462;50.764;4.332;2022-12-07T16:19:13;12.15;;;8.63;;
25581;SDS011;13462;50.764;4.332;2022-12-07T16:21:39;6.57;;;5.65;;
25581;SDS011;13462;50.764;4.332;2022-12-07T16:24:05;9.15;;;7.18;;
25581;SDS011;13462;50.764;4.332;2022-12-07T16:26:32;10.48;;;7.28;;
25581;SDS011;13462;50.764;4.332;2022-12-07T16:28:58;10.40;;;6.95;;
25581;SDS011;13462;50.764;4.332;2022-12-07T16:31:24;8.68;;;6.00;;
25581;SDS011;13462;50.764;4.332;2022-12-07T16:33:55;13.27;;;6.40;;
25581;SDS011;13462;50.764;4.332;2022-12-07T16:36:22;12.85;;;9.38;;
25581;SDS011;13462;50.764;4.332;2022-12-07T16:38:50;16.38;;;10.48;;
25581;SDS011;13462;50.764;4.332;2022-12-07T16:41:16;10.70;;;8.25;;
25581;SDS011;13462;50.764;4.332;2022-12-07T16:43:42;9.85;;;6.57;;
25581;SDS011;13462;50.764;4.332;2022-12-07T16:46:08;13.38;;;6.63;;
25581;SDS011;13462;50.764;4.332;2022-12-07T16:48:35;9.45;;;6.38;;
25581;SDS011;13462;50.764;4.332;2022-12-07T16:51:03;10.00;;;6.25;;
25581;SDS011;13462;50.764;4.332;2022-12-07T16:53:30;11.68;;;6.18;;
25581;SDS011;13462;50.764;4.332;2022-12-07T16:55:56;9.02;;;6.68;;
25581;SDS011;13462;50.764;4.332;2022-12-07T16:58:22;9.68;;;6.22;;
25581;SDS011;13462;50.764;4.332;2022-12-07T17:00:47;9.48;;;5.38;;
25581;SDS011;13462;50.764;4.332;2022-12-07T17:03:13;14.52;;;5.95;;
25581;SDS011;13462;50.764;4.332;2022-12-07T17:05:40;11.68;;;6.28;;
25581;SDS011;13462;50.764;4.332;2022-12-07T17:08:06;12.43;;;6.03;;
25581;SDS011;13462;50.764;4.332;2022-12-07T17:10:33;10.82;;;6.10;;
25581;SDS011;13462;50.764;4.332;2022-12-07T17:13:01;6.60;;;5.13;;
25581;SDS011;13462;50.764;4.332;2022-12-07T17:15:54;9.00;;;6.07;;
25581;SDS011;13462;50.764;4.332;2022-12-07T17:18:28;10.55;;;5.18;;
25581;SDS011;13462;50.764;4.332;2022-12-07T17:20:55;12.18;;;5.75;;
25581;SDS011;13462;50.764;4.332;2022-12-07T17:23:21;9.63;;;5.97;;
25581;SDS011;13462;50.764;4.332;2022-12-07T17:25:47;8.80;;;6.38;;
25581;SDS011;13462;50.764;4.332;2022-12-07T17:28:12;18.30;;;8.15;;
25581;SDS011;13462;50.764;4.332;2022-12-07T17:30:38;10.38;;;9.27;;
25581;SDS011;13462;50.764;4.332;2022-12-07T17:33:04;14.70;;;9.98;;
25581;SDS011;13462;50.764;4.332;2022-12-07T17:35:29;15.73;;;9.70;;
25581;SDS011;13462;50.764;4.332;2022-12-07T17:37:55;16.70;;;8.98;;
25581;SDS011;13462;50.764;4.332;2022-12-07T17:40:21;15.90;;;10.73;;
25581;SDS011;13462;50.764;4.332;2022-12-07T17:42:46;17.48;;;12.25;;
25581;SDS011;13462;50.764;4.332;2022-12-07T17:45:15;15.40;;;11.65;;
25581;SDS011;13462;50.764;4.332;2022-12-07T17:47:41;23.98;;;16.20;;
25581;SDS011;13462;50.764;4.332;2022-12-07T17:50:07;22.95;;;11.80;;
25581;SDS011;13462;50.764;4.332;2022-12-07T17:52:37;22.35;;;12.32;;
25581;SDS011;13462;50.764;4.332;2022-12-07T17:55:22;15.80;;;11.40;;
25581;SDS011;13462;50.764;4.332;2022-12-07T17:57:48;18.80;;;10.90;;
25581;SDS011;13462;50.764;4.332;2022-12-07T18:00:14;25.58;;;15.45;;
25581;SDS011;13462;50.764;4.332;2022-12-07T18:02:40;21.35;;;12.18;;
25581;SDS011;13462;50.764;4.332;2022-12-07T18:05:06;26.40;;;12.80;;
25581;SDS011;13462;50.764;4.332;2022-12-07T18:07:32;21.77;;;13.63;;
25581;SDS011;13462;50.764;4.332;2022-12-07T18:09:57;19.35;;;13.45;;
25581;SDS011;13462;50.764;4.332;2022-12-07T18:12:23;20.20;;;13.90;;
25581;SDS011;13462;50.764;4.332;2022-12-07T18:14:49;54.67;;;31.63;;
25581;SDS011;13462;50.764;4.332;2022-12-07T18:17:15;37.97;;;22.08;;
25581;SDS011;13462;50.764;4.332;2022-12-07T18:19:41;34.92;;;27.20;;
25581;SDS011;13462;50.764;4.332;2022-12-07T18:22:07;30.73;;;22.73;;
25581;SDS011;13462;50.764;4.332;2022-12-07T18:24:33;29.08;;;20.45;;
25581;SDS011;13462;50.764;4.332;2022-12-07T18:26:58;29.65;;;15.32;;
25581;SDS011;13462;50.764;4.332;2022-12-07T18:29:24;34.92;;;16.23;;
25581;SDS011;13462;50.764;4.332;2022-12-07T18:31:49;27.23;;;16.83;;
25581;SDS011;13462;50.764;4.332;2022-12-07T18:34:16;26.10;;;16.00;;
25581;SDS011;13462;50.764;4.332;2022-12-07T18:36:43;29.55;;;17.60;;
25581;SDS011;13462;50.764;4.332;2022-12-07T18:39:10;31.88;;;17.63;;
25581;SDS011;13462;50.764;4.332;2022-12-07T18:41:37;28.08;;;16.25;;
25581;SDS011;13462;50.764;4.332;2022-12-07T18:44:03;31.30;;;16.00;;
25581;SDS011;13462;50.764;4.332;2022-12-07T18:46:30;24.08;;;15.07;;
25581;SDS011;13462;50.764;4.332;2022-12-07T18:48:56;32.47;;;20.85;;
25581;SDS011;13462;50.764;4.332;2022-12-07T18:51:21;26.15;;;15.10;;
25581;SDS011;13462;50.764;4.332;2022-12-07T18:53:47;24.65;;;14.05;;